createdAt,value
2024-03-12T00:00:03.521Z,35
2024-03-12T00:05:03.509Z,38
2024-03-12T00:10:03.257Z,22
2024-03-12T00:15:02.953Z,23
2024-03-12T00:20:02.560Z,37
2024-03-12T00:25:03.476Z,38
2024-03-12T00:30:03.062Z,36
2024-03-12T00:35:02.613Z,39
2024-03-12T00:40:03.288Z,36
2024-03-12T00:45:03.099Z,35
2024-03-12T00:50:02.624Z,39
2024-03-12T00:55:03.221Z,39
2024-03-12T01:00:02.826Z,43
2024-03-12T01:05:03.270Z,45
2024-03-12T01:10:02.814Z,45
2024-03-12T01:15:02.464Z,39
2024-03-12T01:20:03.080Z,18
2024-03-12T01:25:02.861Z,40
2024-03-12T01:30:02.483Z,39
2024-03-12T01:35:03.228Z,34
2024-03-12T01:40:02.784Z,32
2024-03-12T01:45:03.388Z,42
2024-03-12T01:50:03.033Z,28
2024-03-12T01:55:02.582Z,28
2024-03-12T02:00:04.497Z,29
2024-03-12T02:05:02.949Z,39
2024-03-12T02:10:02.640Z,27
2024-03-12T02:15:03.336Z,39
2024-03-12T02:20:02.992Z,40
2024-03-12T02:25:02.651Z,41
2024-03-12T02:30:03.286Z,38
2024-03-12T02:35:02.823Z,19
2024-03-12T02:40:03.342Z,34
2024-03-12T02:45:03.037Z,37
2024-03-12T02:50:02.635Z,34
2024-03-12T02:55:03.235Z,18
2024-03-12T03:00:02.800Z,21
2024-03-12T03:05:03.359Z,38
2024-03-12T03:10:02.939Z,22
2024-03-12T03:15:02.453Z,39
2024-03-12T03:20:03.098Z,39
2024-03-12T03:25:02.802Z,43
2024-03-12T03:30:02.481Z,23
2024-03-12T03:35:02.963Z,35
2024-03-12T03:40:02.663Z,38
2024-03-12T03:45:03.293Z,43
2024-03-12T03:50:02.801Z,44
2024-03-12T03:55:03.442Z,48
2024-03-12T04:00:03.013Z,37
2024-03-12T04:05:02.485Z,50
2024-03-12T04:10:03.581Z,36
2024-03-12T04:15:03.433Z,51
2024-03-12T04:20:02.973Z,37
2024-03-12T04:25:02.612Z,56
2024-03-12T04:30:03.241Z,56
2024-03-12T04:35:02.680Z,49
2024-03-12T04:40:03.477Z,68
2024-03-12T04:45:03.085Z,68
2024-03-12T04:50:02.523Z,54
2024-03-12T04:55:03.139Z,68
2024-03-12T05:00:02.733Z,68
2024-03-12T05:05:03.293Z,79
2024-03-12T05:10:02.815Z,91
2024-03-12T05:15:03.426Z,186
2024-03-12T05:20:02.930Z,333
2024-03-12T05:25:02.522Z,733
2024-03-12T05:30:03.146Z,2649
2024-03-12T05:35:02.687Z,5124
2024-03-12T05:40:03.251Z,134
2024-03-12T05:45:02.856Z,167
2024-03-12T05:50:03.534Z,238
2024-03-12T05:55:03.348Z,328
2024-03-12T06:00:02.927Z,467
2024-03-12T06:05:02.435Z,983
2024-03-12T06:10:03.013Z,1941
2024-03-12T06:15:02.753Z,1710
2024-03-12T06:20:03.247Z,2051
2024-03-12T06:25:02.861Z,2803
2024-03-12T06:30:02.673Z,4107
2024-03-12T06:35:03.395Z,6241
2024-03-12T06:40:02.989Z,5397
2024-03-12T06:45:02.530Z,6999
2024-03-12T06:50:04.221Z,638
2024-03-12T06:55:02.903Z,529
2024-03-12T07:00:02.415Z,580
2024-03-12T07:05:03.110Z,653
2024-03-12T07:10:02.966Z,763
2024-03-12T07:15:02.443Z,690
2024-03-12T07:20:03.021Z,563
2024-03-12T07:25:02.570Z,614
2024-03-12T07:30:03.084Z,1137
2024-03-12T07:35:02.539Z,1412
2024-03-12T07:40:03.145Z,1351
2024-03-12T07:45:02.723Z,1381
2024-03-12T07:50:03.156Z,1484
2024-03-12T07:55:02.711Z,1856
2024-03-12T08:00:03.169Z,1638
2024-03-12T08:05:02.794Z,1488
2024-03-12T08:10:03.436Z,2524
2024-03-12T08:15:03.713Z,2395
2024-03-12T08:20:03.354Z,1785
2024-03-12T08:25:02.886Z,1957
2024-03-12T08:30:02.434Z,1952
2024-03-12T08:35:02.960Z,2013
2024-03-12T08:40:02.501Z,2491
2024-03-12T08:45:03.317Z,3943
2024-03-12T08:50:02.824Z,2814
2024-03-12T08:55:03.398Z,2555
2024-03-12T09:00:03.111Z,3178
2024-03-12T09:05:02.676Z,2936
2024-03-12T09:10:03.393Z,4644
2024-03-12T09:15:02.962Z,4465
2024-03-12T09:20:02.496Z,2708
2024-03-12T09:25:03.024Z,2282
2024-03-12T09:30:02.653Z,2805
2024-03-12T09:35:03.197Z,2272
2024-03-12T09:40:03.370Z,2036
2024-03-12T09:45:02.978Z,2154
2024-03-12T09:50:04.932Z,2021
2024-03-12T09:55:02.823Z,2147
2024-03-12T10:00:02.337Z,3660
2024-03-12T10:05:03.017Z,4000
2024-03-12T10:10:02.628Z,2557
2024-03-12T10:15:03.407Z,4492
2024-03-12T10:20:04.542Z,5092
2024-03-12T10:25:02.635Z,4604
2024-03-12T10:30:03.184Z,2880
2024-03-12T10:35:02.694Z,2339
2024-03-12T10:40:03.327Z,2089
2024-03-12T10:45:02.784Z,1976
2024-03-12T10:50:03.821Z,2153
2024-03-12T10:55:09.750Z,4068
2024-03-12T11:00:03.300Z,4411
2024-03-12T11:05:04.124Z,4178
2024-03-12T11:10:02.768Z,4355
2024-03-12T11:15:05.698Z,2813
2024-03-12T11:20:03.930Z,2370
2024-03-12T11:25:03.641Z,2084
2024-03-12T11:30:03.815Z,3353
2024-03-12T11:35:04.003Z,1924
2024-03-12T11:40:03.831Z,1881
2024-03-12T11:45:04.281Z,1744
2024-03-12T11:50:05.111Z,3542
2024-03-12T11:55:04.379Z,4104
2024-03-12T12:00:04.412Z,3293
2024-03-12T12:05:02.969Z,4197
2024-03-12T12:10:04.194Z,3328
2024-03-12T12:15:03.681Z,3701
2024-03-12T12:20:03.408Z,2260
2024-03-12T12:25:03.071Z,2158
2024-03-12T12:30:04.349Z,3183
2024-03-12T12:35:03.287Z,6983
2024-03-12T12:40:04.427Z,4535
2024-03-12T12:45:02.951Z,2447
2024-03-12T12:50:02.411Z,1777
2024-03-12T12:55:02.935Z,1346
2024-03-12T13:00:02.446Z,1712
2024-03-12T13:05:02.952Z,2055
2024-03-12T13:10:02.439Z,2713
2024-03-12T13:15:03.405Z,3044
2024-03-12T13:20:02.941Z,4489
2024-03-12T13:25:02.441Z,4227
2024-03-12T13:30:03.450Z,2253
2024-03-12T13:35:03.199Z,2443
2024-03-12T13:40:02.712Z,2905
2024-03-12T13:45:03.413Z,2039
2024-03-12T13:50:03.092Z,1666
2024-03-12T13:55:02.621Z,1604
2024-03-12T14:00:02.726Z,1488
2024-03-12T14:05:05.648Z,1328
2024-03-12T14:10:02.574Z,1498
2024-03-12T14:15:03.290Z,1321
2024-03-12T14:20:02.866Z,1493
2024-03-12T14:25:02.501Z,2104
2024-03-12T14:30:03.165Z,1956
2024-03-12T14:35:02.759Z,1202
2024-03-12T14:40:03.446Z,1642
2024-03-12T14:45:03.055Z,2382
2024-03-12T14:50:02.572Z,1703
2024-03-12T14:55:03.135Z,1721
2024-03-12T15:00:05.567Z,2665
2024-03-12T15:05:02.390Z,2311
2024-03-12T15:10:03.100Z,1446
2024-03-12T15:15:02.712Z,1443
2024-03-12T15:20:03.279Z,1629
2024-03-12T15:25:02.872Z,2102
2024-03-12T15:30:02.659Z,2043
2024-03-12T15:35:03.324Z,2676
2024-03-12T15:40:02.933Z,4144
2024-03-12T15:45:02.477Z,3942
2024-03-12T15:50:03.005Z,3090
2024-03-12T15:55:02.601Z,2314
2024-03-12T16:00:03.196Z,2419
2024-03-12T16:05:02.751Z,2294
2024-03-12T16:10:03.655Z,1925
2024-03-12T16:15:03.357Z,1420
2024-03-12T16:20:03.156Z,1728
2024-03-12T16:25:02.732Z,1512
2024-03-12T16:30:03.260Z,1031
2024-03-12T16:35:02.956Z,694
2024-03-12T16:40:02.681Z,510
2024-03-12T16:45:03.223Z,353
2024-03-12T16:50:02.766Z,279
2024-03-12T16:55:03.331Z,207
2024-03-12T17:00:02.823Z,150
2024-03-12T17:05:03.350Z,132
2024-03-12T17:10:03.021Z,87
2024-03-12T17:15:02.709Z,113
2024-03-12T17:20:03.323Z,121
2024-03-12T17:25:03.048Z,127
2024-03-12T17:30:03.230Z,91
2024-03-12T17:35:02.830Z,56
2024-03-12T17:40:02.402Z,27
2024-03-12T17:45:02.960Z,179
2024-03-12T17:50:02.419Z,69
2024-03-12T17:55:02.990Z,27
2024-03-12T18:00:04.586Z,233
2024-03-12T18:05:03.378Z,97
2024-03-12T18:10:03.082Z,43
2024-03-12T18:15:02.638Z,24
2024-03-12T18:20:03.290Z,17
2024-03-12T18:25:02.974Z,18
2024-03-12T18:30:02.478Z,32
2024-03-12T18:35:03.014Z,13
2024-03-12T18:40:03.747Z,28
2024-03-12T18:45:04.082Z,27
2024-03-12T18:50:02.788Z,24
2024-03-12T18:55:03.535Z,28
2024-03-12T19:00:04.301Z,1
2024-03-12T19:05:02.824Z,11
2024-03-12T19:10:03.340Z,10
2024-03-12T19:15:02.905Z,10
2024-03-12T19:20:02.512Z,0
2024-03-12T19:25:03.060Z,10
2024-03-12T19:30:02.554Z,9
2024-03-12T19:35:03.081Z,9
2024-03-12T19:40:02.850Z,9
2024-03-12T19:45:03.492Z,0
2024-03-12T19:50:03.295Z,9
2024-03-12T19:55:03.546Z,10
2024-03-12T20:00:03.780Z,8
2024-03-12T20:05:04.084Z,8
2024-03-12T20:10:02.815Z,9
2024-03-12T20:15:03.343Z,9
2024-03-12T20:20:02.808Z,0
2024-03-12T20:25:03.360Z,18
2024-03-12T20:30:02.813Z,19
2024-03-12T20:35:03.419Z,28
2024-03-12T20:40:03.041Z,45
2024-03-12T20:45:02.681Z,43
2024-03-12T20:50:03.206Z,36
2024-03-12T20:55:02.793Z,32
2024-03-12T21:00:03.301Z,34
2024-03-12T21:05:02.832Z,31
2024-03-12T21:10:03.432Z,24
2024-03-12T21:15:03.009Z,6
2024-03-12T21:20:03.151Z,15
2024-03-12T21:25:02.724Z,10
2024-03-12T21:30:03.340Z,8
2024-03-12T21:35:02.783Z,7
2024-03-12T21:40:03.342Z,0
2024-03-12T21:45:02.946Z,7
2024-03-12T21:50:02.375Z,7
2024-03-12T21:55:02.958Z,0
2024-03-12T22:00:02.393Z,6
2024-03-12T22:05:02.951Z,6
2024-03-12T22:10:02.566Z,7
2024-03-12T22:15:03.179Z,7
2024-03-12T22:20:03.203Z,0
2024-03-12T22:25:02.785Z,6
2024-03-12T22:30:03.286Z,0
2024-03-12T22:35:02.884Z,0
2024-03-12T22:40:02.558Z,5
2024-03-12T22:45:03.406Z,6
2024-03-12T22:50:03.266Z,6
2024-03-12T22:55:03.009Z,5
2024-03-12T23:00:02.707Z,0
2024-03-12T23:05:03.986Z,5
2024-03-12T23:10:02.648Z,5
2024-03-12T23:15:03.323Z,5
2024-03-12T23:20:03.318Z,6
2024-03-12T23:25:03.050Z,5
2024-03-12T23:30:03.086Z,5
2024-03-12T23:35:02.843Z,0
2024-03-12T23:40:02.613Z,5
2024-03-12T23:45:03.252Z,5
2024-03-12T23:50:02.980Z,5
2024-03-12T23:55:02.709Z,0
